createdAt,value
2022-08-27T00:01:25.565Z,4.35
2022-08-27T00:03:56.582Z,4.32
2022-08-27T00:06:25.418Z,3.88
2022-08-27T00:08:53.687Z,3.85
2022-08-27T00:11:22.396Z,3.55
2022-08-27T00:13:50.316Z,3.33
2022-08-27T00:16:17.959Z,4.15
2022-08-27T00:18:48.417Z,3.33
2022-08-27T00:21:17.786Z,3.80
2022-08-27T00:23:45.321Z,3.45
2022-08-27T00:26:15.035Z,3.90
2022-08-27T00:28:43.308Z,3.85
2022-08-27T00:31:12.334Z,4.47
2022-08-27T00:33:41.518Z,4.40
2022-08-27T00:36:08.840Z,3.65
2022-08-27T00:38:38.573Z,3.60
2022-08-27T00:41:08.835Z,3.45
2022-08-27T00:43:56.130Z,3.95
2022-08-27T00:46:44.814Z,3.72
2022-08-27T00:49:21.333Z,4.38
2022-08-27T00:51:57.754Z,4.32
2022-08-27T00:54:26.532Z,3.95
2022-08-27T00:56:54.894Z,4.30
2022-08-27T00:59:25.427Z,4.10
2022-08-27T01:02:12.930Z,3.88
2022-08-27T01:04:42.854Z,3.45
2022-08-27T01:07:12.124Z,4.30
2022-08-27T01:09:39.584Z,3.50
2022-08-27T01:12:08.104Z,3.58
2022-08-27T01:14:39.458Z,4.28
2022-08-27T01:17:09.434Z,4.13
2022-08-27T01:19:42.918Z,3.80
2022-08-27T01:22:42.489Z,3.85
2022-08-27T01:25:16.260Z,3.60
2022-08-27T01:27:45.829Z,4.32
2022-08-27T01:30:15.986Z,3.72
2022-08-27T01:32:44.224Z,4.25
2022-08-27T01:35:14.586Z,3.47
2022-08-27T01:37:44.626Z,3.95
2022-08-27T01:40:13.383Z,3.60
2022-08-27T01:42:44.673Z,3.65
2022-08-27T01:45:20.317Z,5.40
2022-08-27T01:47:48.059Z,4.05
2022-08-27T01:50:19.510Z,3.83
2022-08-27T01:52:46.984Z,3.55
2022-08-27T01:55:17.420Z,3.60
2022-08-27T01:57:45.683Z,3.95
2022-08-27T02:00:25.111Z,3.67
2022-08-27T02:02:52.372Z,3.45
2022-08-27T02:05:19.787Z,3.83
2022-08-27T02:07:47.418Z,4.00
2022-08-27T02:10:18.173Z,4.07
2022-08-27T02:12:46.186Z,4.30
2022-08-27T02:15:15.427Z,4.70
2022-08-27T02:17:42.995Z,4.20
2022-08-27T02:20:11.224Z,5.00
2022-08-27T02:22:39.003Z,4.70
2022-08-27T02:25:10.304Z,4.55
2022-08-27T02:27:42.952Z,3.92
2022-08-27T02:30:13.724Z,4.40
2022-08-27T02:32:41.183Z,3.83
2022-08-27T02:35:09.265Z,4.25
2022-08-27T02:37:38.010Z,4.38
2022-08-27T02:40:07.667Z,5.07
2022-08-27T02:42:35.217Z,4.60
2022-08-27T02:45:02.722Z,4.50
2022-08-27T02:47:30.530Z,4.70
2022-08-27T02:49:57.808Z,4.63
2022-08-27T02:52:27.272Z,4.18
2022-08-27T02:54:54.502Z,4.57
2022-08-27T02:57:22.554Z,4.95
2022-08-27T02:59:51.257Z,4.68
2022-08-27T03:02:19.330Z,4.28
2022-08-27T03:04:46.988Z,4.75
2022-08-27T03:07:19.067Z,3.80
2022-08-27T03:09:46.405Z,4.28
2022-08-27T03:12:13.804Z,4.50
2022-08-27T03:14:40.886Z,4.57
2022-08-27T03:17:26.958Z,4.63
2022-08-27T03:19:55.640Z,4.18
2022-08-27T03:22:22.862Z,4.32
2022-08-27T03:24:50.376Z,3.83
2022-08-27T03:27:17.546Z,4.63
2022-08-27T03:29:44.718Z,4.00
2022-08-27T03:32:12.078Z,4.63
2022-08-27T03:34:39.257Z,4.63
2022-08-27T03:37:06.722Z,4.35
2022-08-27T03:39:34.017Z,4.93
2022-08-27T03:42:01.377Z,4.32
2022-08-27T03:44:28.656Z,5.05
2022-08-27T03:46:56.099Z,5.00
2022-08-27T03:49:24.325Z,4.80
2022-08-27T03:51:53.138Z,4.90
2022-08-27T03:54:20.760Z,5.10
2022-08-27T03:56:48.280Z,4.68
2022-08-27T03:59:16.135Z,4.57
2022-08-27T04:01:44.866Z,4.65
2022-08-27T04:04:13.279Z,4.38
2022-08-27T04:06:41.500Z,4.70
2022-08-27T04:09:08.961Z,4.47
2022-08-27T04:11:36.670Z,4.95
2022-08-27T04:14:14.524Z,4.97
2022-08-27T04:16:55.004Z,4.82
2022-08-27T04:19:26.865Z,5.07
2022-08-27T04:22:02.481Z,5.45
2022-08-27T04:24:32.356Z,4.85
2022-08-27T04:27:01.706Z,4.72
2022-08-27T04:29:29.820Z,4.72
2022-08-27T04:31:57.847Z,5.18
2022-08-27T04:34:25.166Z,4.88
2022-08-27T04:36:57.049Z,4.85
2022-08-27T04:39:25.704Z,5.38
2022-08-27T04:41:56.336Z,5.22
2022-08-27T04:44:25.586Z,5.38
2022-08-27T04:46:57.642Z,6.50
2022-08-27T04:49:27.067Z,5.03
2022-08-27T04:51:54.961Z,4.68
2022-08-27T04:54:32.183Z,4.75
2022-08-27T04:57:00.088Z,5.20
2022-08-27T04:59:27.310Z,5.38
2022-08-27T05:01:54.605Z,4.68
2022-08-27T05:04:22.255Z,5.30
2022-08-27T05:06:50.773Z,5.10
2022-08-27T05:09:22.141Z,6.22
2022-08-27T05:11:54.070Z,7.05
2022-08-27T05:14:22.389Z,6.78
2022-08-27T05:16:50.006Z,7.43
2022-08-27T05:19:17.465Z,7.68
2022-08-27T05:21:47.960Z,8.57
2022-08-27T05:24:16.513Z,8.38
2022-08-27T05:26:44.704Z,9.93
2022-08-27T05:31:43.481Z,9.60
2022-08-27T05:34:18.923Z,7.93
2022-08-27T05:36:53.142Z,7.05
2022-08-27T05:39:20.497Z,7.30
2022-08-27T05:41:47.573Z,7.35
2022-08-27T05:44:40.080Z,6.00
2022-08-27T05:47:04.315Z,5.60
2022-08-27T05:49:31.867Z,5.78
2022-08-27T05:52:00.077Z,5.07
2022-08-27T05:54:27.983Z,5.10
2022-08-27T05:56:55.101Z,4.97
2022-08-27T05:59:44.427Z,4.82
2022-08-27T06:02:12.702Z,4.32
2022-08-27T06:04:39.995Z,4.55
2022-08-27T06:07:09.427Z,4.22
2022-08-27T06:09:38.707Z,5.03
2022-08-27T06:12:06.349Z,4.00
2022-08-27T06:14:35.247Z,5.78
2022-08-27T06:17:03.127Z,7.00
2022-08-27T06:19:30.368Z,7.72
2022-08-27T06:22:09.910Z,7.88
2022-08-27T06:24:42.527Z,7.80
2022-08-27T06:27:17.034Z,9.43
2022-08-27T06:29:45.217Z,9.82
2022-08-27T06:32:14.769Z,5.70
2022-08-27T06:34:42.104Z,7.68
2022-08-27T06:37:09.506Z,5.90
2022-08-27T06:39:39.432Z,5.28
2022-08-27T06:42:12.190Z,6.23
2022-08-27T06:44:40.268Z,4.93
2022-08-27T06:47:07.535Z,4.90
2022-08-27T06:49:34.773Z,5.05
2022-08-27T06:52:02.866Z,5.85
2022-08-27T06:54:34.022Z,4.18
2022-08-27T06:57:01.409Z,4.43
2022-08-27T06:59:28.631Z,4.35
2022-08-27T07:01:56.348Z,4.35
2022-08-27T07:04:32.034Z,3.50
2022-08-27T07:07:02.349Z,3.63
2022-08-27T07:09:32.225Z,3.13
2022-08-27T07:12:00.181Z,3.75
2022-08-27T07:14:28.226Z,3.88
2022-08-27T07:16:55.699Z,3.67
2022-08-27T07:19:23.253Z,3.67
2022-08-27T07:21:50.955Z,3.70
2022-08-27T07:24:19.233Z,3.67
2022-08-27T07:26:46.922Z,3.63
2022-08-27T07:29:15.529Z,3.38
2022-08-27T07:31:43.826Z,4.05
2022-08-27T07:34:11.707Z,3.60
2022-08-27T07:36:39.627Z,3.20
2022-08-27T07:39:08.054Z,3.92
2022-08-27T07:41:59.064Z,3.10
2022-08-27T07:44:30.951Z,3.72
2022-08-27T07:47:02.534Z,3.20
2022-08-27T07:49:31.895Z,3.47
2022-08-27T07:51:59.596Z,2.90
2022-08-27T07:54:26.756Z,3.40
2022-08-27T07:56:56.118Z,5.00
2022-08-27T07:59:26.053Z,3.50
2022-08-27T08:01:55.294Z,3.95
2022-08-27T08:04:23.092Z,4.03
2022-08-27T08:06:51.389Z,3.30
2022-08-27T08:09:19.120Z,3.13
2022-08-27T08:11:46.705Z,3.25
2022-08-27T08:14:14.189Z,3.67
2022-08-27T08:16:41.639Z,3.20
2022-08-27T08:19:09.419Z,3.72
2022-08-27T08:21:38.597Z,3.92
2022-08-27T08:24:06.423Z,4.00
2022-08-27T08:26:34.250Z,2.90
2022-08-27T08:29:04.963Z,3.22
2022-08-27T08:31:32.561Z,3.67
2022-08-27T08:33:59.814Z,3.50
2022-08-27T08:36:27.209Z,4.10
2022-08-27T08:38:55.067Z,4.10
2022-08-27T08:41:28.389Z,3.42
2022-08-27T08:44:05.337Z,3.75
2022-08-27T08:47:12.560Z,3.33
2022-08-27T08:50:10.925Z,4.35
2022-08-27T08:52:55.785Z,3.28
2022-08-27T08:55:32.495Z,4.13
2022-08-27T08:58:37.478Z,3.17
2022-08-27T09:01:08.334Z,4.85
2022-08-27T09:03:42.275Z,4.82
2022-08-27T09:06:32.644Z,3.50
2022-08-27T09:09:09.417Z,3.00
2022-08-27T09:11:51.192Z,3.25
2022-08-27T09:14:34.388Z,3.10
2022-08-27T09:17:02.914Z,3.03
2022-08-27T09:19:38.391Z,3.10
2022-08-27T09:22:21.237Z,2.92
2022-08-27T09:25:00.586Z,3.67
2022-08-27T09:27:28.435Z,3.47
2022-08-27T09:29:56.946Z,3.78
2022-08-27T09:32:32.979Z,3.90
2022-08-27T09:35:03.574Z,3.17
2022-08-27T09:37:42.009Z,3.35
2022-08-27T09:40:23.030Z,3.88
2022-08-27T09:42:53.537Z,3.45
2022-08-27T09:45:24.874Z,3.10
2022-08-27T09:48:07.659Z,3.45
2022-08-27T09:50:43.909Z,3.17
2022-08-27T09:53:27.296Z,3.50
2022-08-27T09:55:57.887Z,5.25
2022-08-27T09:58:33.351Z,4.07
2022-08-27T10:01:03.658Z,5.20
2022-08-27T10:03:33.587Z,4.15
2022-08-27T10:06:01.477Z,4.78
2022-08-27T10:08:49.417Z,3.20
2022-08-27T10:11:22.593Z,3.90
2022-08-27T10:14:17.990Z,3.72
2022-08-27T10:17:07.085Z,3.72
2022-08-27T10:20:01.363Z,3.72
2022-08-27T10:22:33.669Z,4.28
2022-08-27T10:25:13.434Z,4.00
2022-08-27T10:28:39.331Z,4.00
2022-08-27T10:31:18.971Z,3.70
2022-08-27T10:33:49.570Z,4.03
2022-08-27T10:39:05.335Z,3.90
2022-08-27T10:41:40.251Z,3.53
2022-08-27T10:44:46.351Z,3.97
2022-08-27T10:47:28.403Z,3.67
2022-08-27T10:50:17.696Z,4.25
2022-08-27T10:53:01.860Z,3.70
2022-08-27T10:55:52.415Z,3.85
2022-08-27T10:58:39.879Z,4.18
2022-08-27T11:01:13.166Z,3.70
2022-08-27T11:03:44.226Z,3.72
2022-08-27T11:06:45.326Z,3.45
2022-08-27T11:12:13.798Z,4.40
2022-08-27T11:14:53.106Z,5.20
2022-08-27T11:17:45.926Z,4.30
2022-08-27T11:20:22.263Z,4.22
2022-08-27T11:23:18.569Z,3.95
2022-08-27T11:26:02.262Z,4.07
2022-08-27T11:28:41.771Z,4.80
2022-08-27T11:31:33.107Z,4.28
2022-08-27T11:34:25.719Z,3.42
2022-08-27T11:37:21.958Z,4.75
2022-08-27T11:39:57.708Z,4.13
2022-08-27T11:42:48.370Z,3.92
2022-08-27T11:45:24.621Z,6.37
2022-08-27T11:47:58.838Z,4.25
2022-08-27T11:50:27.752Z,4.18
2022-08-27T11:53:08.541Z,4.43
2022-08-27T11:55:38.791Z,3.88
2022-08-27T11:58:27.057Z,4.63
2022-08-27T12:00:55.062Z,4.35
2022-08-27T12:03:22.376Z,4.07
2022-08-27T12:06:09.727Z,4.18
2022-08-27T12:08:38.543Z,4.90
2022-08-27T12:11:21.519Z,4.38
2022-08-27T12:13:51.754Z,4.88
2022-08-27T12:16:38.476Z,3.95
2022-08-27T12:19:15.979Z,4.25
2022-08-27T12:22:06.579Z,4.60
2022-08-27T12:24:56.059Z,4.07
2022-08-27T12:27:32.425Z,4.40
2022-08-27T12:30:20.386Z,4.32
2022-08-27T12:32:53.578Z,4.50
2022-08-27T12:35:26.706Z,4.50
2022-08-27T12:38:05.035Z,4.10
2022-08-27T12:40:42.422Z,4.72
2022-08-27T12:43:25.464Z,4.43
2022-08-27T12:46:14.546Z,4.88
2022-08-27T12:48:51.593Z,3.85
2022-08-27T12:51:32.349Z,4.55
2022-08-27T12:54:19.926Z,4.53
2022-08-27T12:57:25.666Z,4.90
2022-08-27T13:00:11.115Z,5.32
2022-08-27T13:03:03.405Z,4.35
2022-08-27T13:05:50.369Z,5.80
2022-08-27T13:08:48.010Z,3.55
2022-08-27T13:11:22.150Z,5.00
2022-08-27T13:13:50.889Z,3.85
2022-08-27T13:16:20.905Z,4.45
2022-08-27T13:18:52.588Z,5.10
2022-08-27T13:21:28.073Z,5.63
2022-08-27T13:23:59.204Z,5.63
2022-08-27T13:29:03.235Z,4.17
2022-08-27T13:31:32.961Z,3.85
2022-08-27T13:34:01.495Z,5.78
2022-08-27T13:36:35.204Z,4.63
2022-08-27T13:39:05.230Z,4.68
2022-08-27T13:41:35.473Z,3.97
2022-08-27T13:44:12.453Z,5.00
2022-08-27T13:47:23.474Z,5.25
2022-08-27T13:50:00.892Z,5.70
2022-08-27T13:52:33.025Z,5.43
2022-08-27T13:55:06.497Z,5.60
2022-08-27T13:57:48.903Z,5.55
2022-08-27T14:00:26.976Z,4.65
2022-08-27T14:02:55.806Z,5.32
2022-08-27T14:05:23.924Z,4.90
2022-08-27T14:08:00.578Z,4.53
2022-08-27T14:10:36.793Z,4.95
2022-08-27T14:13:08.561Z,5.22
2022-08-27T14:15:42.194Z,4.95
2022-08-27T14:18:48.427Z,5.35
2022-08-27T14:21:18.628Z,5.57
2022-08-27T14:23:46.181Z,5.28
2022-08-27T14:26:15.229Z,5.70
2022-08-27T14:28:45.565Z,5.57
2022-08-27T14:31:14.318Z,4.57
2022-08-27T14:33:41.846Z,4.80
2022-08-27T14:36:09.958Z,5.32
2022-08-27T14:38:42.370Z,4.50
2022-08-27T14:41:09.887Z,4.65
2022-08-27T14:43:38.232Z,5.28
2022-08-27T14:46:10.684Z,5.30
2022-08-27T14:48:43.412Z,5.03
2022-08-27T14:51:25.235Z,5.38
2022-08-27T14:53:53.269Z,5.10
2022-08-27T14:56:22.448Z,6.18
2022-08-27T14:58:50.735Z,4.50
2022-08-27T15:01:20.888Z,5.05
2022-08-27T15:03:50.852Z,5.60
2022-08-27T15:06:22.064Z,4.43
2022-08-27T15:08:52.175Z,5.38
2022-08-27T15:11:25.502Z,5.65
2022-08-27T15:13:54.392Z,5.65
2022-08-27T15:16:29.546Z,5.25
2022-08-27T15:19:00.812Z,6.63
2022-08-27T15:21:30.714Z,6.00
2022-08-27T15:24:03.268Z,5.68
2022-08-27T15:26:33.327Z,5.90
2022-08-27T15:29:06.563Z,4.68
2022-08-27T15:31:34.584Z,5.18
2022-08-27T15:34:02.329Z,5.18
2022-08-27T15:36:29.995Z,5.00
2022-08-27T15:38:57.420Z,6.13
2022-08-27T15:41:28.664Z,4.88
2022-08-27T15:43:58.085Z,4.90
2022-08-27T15:46:26.376Z,5.60
2022-08-27T15:48:54.136Z,5.93
2022-08-27T15:51:27.660Z,6.30
2022-08-27T15:53:56.263Z,5.65
2022-08-27T15:56:24.259Z,4.90
2022-08-27T15:58:52.433Z,5.13
2022-08-27T16:01:32.176Z,4.60
2022-08-27T16:04:02.972Z,4.80
2022-08-27T16:06:31.134Z,5.43
2022-08-27T16:08:58.626Z,5.57
2022-08-27T16:11:26.161Z,4.97
2022-08-27T16:13:55.596Z,5.35
2022-08-27T16:16:30.820Z,5.25
2022-08-27T16:19:01.341Z,5.30
2022-08-27T16:21:29.556Z,6.07
2022-08-27T16:23:57.264Z,5.20
2022-08-27T16:26:24.861Z,7.47
2022-08-27T16:28:52.071Z,5.70
2022-08-27T16:31:19.698Z,6.35
2022-08-27T16:33:47.256Z,6.05
2022-08-27T16:36:14.850Z,6.20
2022-08-27T16:38:42.317Z,6.30
2022-08-27T16:41:09.815Z,6.78
2022-08-27T16:43:38.702Z,8.20
2022-08-27T16:46:06.839Z,11.13
2022-08-27T16:49:01.541Z,11.13
2022-08-27T16:52:28.083Z,9.30
2022-08-27T16:54:57.019Z,10.35
2022-08-27T16:57:24.682Z,8.43
2022-08-27T16:59:51.978Z,10.02
2022-08-27T17:02:30.717Z,8.93
2022-08-27T17:05:12.259Z,8.15
2022-08-27T17:07:48.792Z,8.07
2022-08-27T17:10:18.443Z,7.85
2022-08-27T17:12:48.082Z,7.38
2022-08-27T17:15:18.779Z,7.95
2022-08-27T17:17:46.372Z,7.97
2022-08-27T17:20:15.190Z,9.27
2022-08-27T17:22:43.486Z,11.38
2022-08-27T17:25:11.531Z,12.45
2022-08-27T17:27:38.826Z,11.15
2022-08-27T17:30:07.587Z,11.45
2022-08-27T17:32:40.038Z,9.50
2022-08-27T17:35:08.603Z,8.55
2022-08-27T17:37:36.196Z,9.70
2022-08-27T17:40:05.137Z,7.80
2022-08-27T17:42:32.832Z,8.30
2022-08-27T17:45:00.316Z,7.55
2022-08-27T17:47:27.995Z,7.00
2022-08-27T17:49:55.125Z,7.00
2022-08-27T17:52:23.226Z,6.70
2022-08-27T17:54:54.249Z,8.00
2022-08-27T17:59:54.976Z,6.43
2022-08-27T18:02:27.863Z,6.72
2022-08-27T18:04:55.778Z,6.20
2022-08-27T18:07:23.469Z,6.03
2022-08-27T18:09:51.363Z,6.72
2022-08-27T18:12:24.040Z,6.15
2022-08-27T18:15:03.526Z,6.20
2022-08-27T18:17:32.302Z,5.05
2022-08-27T18:19:59.896Z,5.57
2022-08-27T18:22:27.947Z,6.90
2022-08-27T18:25:02.973Z,7.13
2022-08-27T18:27:34.055Z,6.80
2022-08-27T18:30:02.331Z,6.80
2022-08-27T18:32:31.048Z,9.25
2022-08-27T18:35:03.286Z,6.55
2022-08-27T18:37:31.271Z,6.53
2022-08-27T18:39:58.495Z,6.78
2022-08-27T18:42:25.801Z,6.78
2022-08-27T18:44:53.060Z,6.35
2022-08-27T18:47:20.452Z,6.13
2022-08-27T18:49:47.862Z,6.97
2022-08-27T18:52:15.290Z,13.85
2022-08-27T18:54:43.133Z,6.53
2022-08-27T18:57:10.360Z,7.00
2022-08-27T18:59:37.527Z,6.47
2022-08-27T19:02:22.530Z,5.90
2022-08-27T19:04:52.542Z,5.38
2022-08-27T19:07:21.086Z,6.20
2022-08-27T19:09:50.569Z,5.88
2022-08-27T19:12:17.824Z,6.32
2022-08-27T19:14:47.823Z,6.55
2022-08-27T19:17:36.051Z,6.88
2022-08-27T19:20:04.897Z,6.20
2022-08-27T19:22:32.657Z,5.78
2022-08-27T19:25:00.149Z,6.47
2022-08-27T19:27:30.105Z,6.20
2022-08-27T19:29:57.618Z,5.97
2022-08-27T19:32:24.915Z,7.53
2022-08-27T19:34:53.086Z,5.75
2022-08-27T19:37:26.608Z,6.63
2022-08-27T19:39:54.006Z,6.00
2022-08-27T19:42:21.583Z,5.45
2022-08-27T19:44:51.895Z,7.13
2022-08-27T19:47:25.926Z,5.40
2022-08-27T19:49:53.856Z,6.57
2022-08-27T19:52:21.279Z,7.28
2022-08-27T19:55:10.214Z,6.57
2022-08-27T19:57:36.459Z,6.97
2022-08-27T20:00:05.485Z,7.20
2022-08-27T20:02:37.199Z,7.30
2022-08-27T20:05:21.112Z,7.53
2022-08-27T20:07:53.636Z,5.90
2022-08-27T20:10:31.622Z,7.18
2022-08-27T20:13:04.083Z,6.45
2022-08-27T20:15:31.455Z,6.00
2022-08-27T20:17:59.777Z,6.93
2022-08-27T20:20:28.961Z,6.68
2022-08-27T20:22:59.447Z,7.30
2022-08-27T20:25:26.791Z,6.13
2022-08-27T20:27:55.288Z,7.00
2022-08-27T20:30:25.644Z,6.45
2022-08-27T20:32:53.294Z,5.47
2022-08-27T20:35:22.170Z,5.65
2022-08-27T20:37:50.018Z,6.78
2022-08-27T20:40:21.621Z,5.88
2022-08-27T20:42:50.507Z,6.32
2022-08-27T20:45:18.848Z,6.53
2022-08-27T20:47:48.810Z,6.47
2022-08-27T20:50:17.993Z,6.18
2022-08-27T20:52:45.877Z,6.05
2022-08-27T20:55:14.344Z,5.75
2022-08-27T20:58:04.413Z,6.10
2022-08-27T21:00:35.542Z,5.00
2022-08-27T21:03:03.043Z,5.75
2022-08-27T21:05:34.435Z,6.50
2022-08-27T21:08:04.053Z,7.03
2022-08-27T21:10:31.569Z,6.75
2022-08-27T21:13:02.206Z,6.40
2022-08-27T21:15:31.723Z,5.90
2022-08-27T21:17:59.070Z,6.50
2022-08-27T21:20:26.816Z,5.93
2022-08-27T21:22:56.148Z,5.88
2022-08-27T21:25:25.430Z,5.85
2022-08-27T21:27:53.894Z,5.90
2022-08-27T21:30:21.767Z,6.68
2022-08-27T21:32:49.199Z,6.78
2022-08-27T21:35:16.493Z,6.15
2022-08-27T21:37:44.399Z,5.82
2022-08-27T21:40:12.023Z,6.28
2022-08-27T21:42:39.319Z,5.82
2022-08-27T21:45:06.901Z,6.25
2022-08-27T21:47:34.758Z,5.95
2022-08-27T21:50:02.909Z,6.32
2022-08-27T21:52:31.595Z,6.15
2022-08-27T21:54:58.666Z,5.88
2022-08-27T21:57:26.153Z,5.75
2022-08-27T21:59:53.425Z,7.50
2022-08-27T22:02:39.926Z,7.63
2022-08-27T22:05:09.447Z,9.35
2022-08-27T22:07:37.118Z,7.72
2022-08-27T22:10:06.346Z,9.07
2022-08-27T22:12:33.666Z,7.07
2022-08-27T22:15:00.861Z,7.15
2022-08-27T22:17:28.148Z,6.35
2022-08-27T22:19:55.261Z,7.38
2022-08-27T22:22:22.382Z,7.93
2022-08-27T22:24:49.943Z,6.00
2022-08-27T22:27:19.675Z,6.43
2022-08-27T22:29:46.778Z,6.15
2022-08-27T22:32:14.076Z,6.95
2022-08-27T22:34:41.083Z,6.75
2022-08-27T22:37:08.343Z,7.72
2022-08-27T22:39:35.831Z,7.95
2022-08-27T22:42:03.401Z,6.65
2022-08-27T22:44:30.919Z,6.00
2022-08-27T22:46:58.839Z,5.90
2022-08-27T22:49:26.912Z,6.15
2022-08-27T22:51:54.250Z,6.32
2022-08-27T22:54:21.355Z,6.32
2022-08-27T22:56:48.755Z,7.45
2022-08-27T22:59:16.112Z,7.03
2022-08-27T23:01:43.633Z,5.93
2022-08-27T23:04:11.375Z,7.57
2022-08-27T23:06:38.891Z,6.70
2022-08-27T23:09:06.165Z,6.57
2022-08-27T23:11:35.553Z,6.45
2022-08-27T23:14:03.098Z,6.20
2022-08-27T23:16:31.910Z,5.93
2022-08-27T23:18:59.089Z,6.43
2022-08-27T23:21:26.420Z,5.35
2022-08-27T23:23:53.607Z,6.32
2022-08-27T23:26:39.992Z,6.25
2022-08-27T23:29:07.555Z,7.25
2022-08-27T23:31:34.827Z,6.30
2022-08-27T23:34:02.088Z,6.38
2022-08-27T23:36:31.358Z,7.00
2022-08-27T23:38:58.599Z,6.20
2022-08-27T23:41:26.474Z,6.07
2022-08-27T23:43:54.417Z,7.15
2022-08-27T23:46:21.658Z,5.72
2022-08-27T23:48:48.798Z,6.32
2022-08-27T23:51:16.119Z,6.15
2022-08-27T23:53:43.292Z,6.05
2022-08-27T23:56:11.077Z,6.13
2022-08-27T23:58:38.480Z,5.80
